Capitol Logistics 2612

Operating for CKS



KMIA
Miami International Airport
Miami, Florida
PANC
Ted Stevens Anchorage International Airport
Anchorage, Alaska

Route Details

Aircraft Information
Primary: Boeing 747-400BCF
Backup: Not Available
Route Data
Distance: 4004nm
Duration: 8h 33m
Recm'd Route: WINCO2 WINCO CHRRI SMELZ Q116 VUZ J151 FAM IRK ABR MOT J483 YXE Q971 NUBEG YPE J537 YYE J515 YXY NCA13 TMSON WITTI4
Origin Wx: KMIA 191253Z 12010KT 10SM FEW020 FEW090 OVC210 29/24 A3009 RMK AO2 SLP190 T02890244 $
Dest. Wx: PANC 191253Z 17005KT 10SM FEW049 OVC100 13/08 A3004 RMK AO2 SLP173 T01330078
Notes: 2X PER WEEK